Time;durP1;ratioP1;P1;durP2;ratioP2;P2;SDS_P1;SDS_P2;PMS_P1;PMS_P2;Temp;Humidity;BMP_temperature;BMP_pressure;BME280_temperature;BME280_humidity;BME280_pressure;Samples;Min_cycle;Max_cycle;Signal;HPM_P1;HPM_P2
2023/12/01 00:01:56;;;;;;;49.33;21.00;;;;;;;1.01;99.35;100254.59;5113215;28;20031;-59
2023/12/01 00:04:22;;;;;;;48.70;20.43;;;;;;;1.03;98.59;100277.19;5101923;28;20157;-59
2023/12/01 00:06:47;;;;;;;45.83;22.40;;;;;;;1.01;98.71;100278.16;5113199;28;20300;-59
2023/12/01 00:09:13;;;;;;;39.10;19.57;;;;;;;1.00;98.53;100274.69;5102110;28;20367;-59
2023/12/01 00:11:40;;;;;;;47.17;21.57;;;;;;;0.90;98.88;100266.25;5102247;28;20020;-58
2023/12/01 00:14:06;;;;;;;44.00;19.83;;;;;;;0.88;98.90;100268.09;5113151;28;20431;-59
2023/12/01 00:16:31;;;;;;;46.27;20.13;;;;;;;0.92;99.55;100275.84;5067808;28;20042;-58
2023/12/01 00:18:56;;;;;;;46.90;21.70;;;;;;;0.96;100.00;100278.28;5113327;28;20023;-59
2023/12/01 00:21:22;;;;;;;39.30;20.30;;;;;;;0.99;99.85;100285.19;5112194;28;20146;-59
2023/12/01 00:23:47;;;;;;;39.60;20.40;;;;;;;1.00;99.58;100285.16;5112902;28;20031;-59
2023/12/01 00:26:15;;;;;;;45.40;21.07;;;;;;;1.01;99.26;100283.38;5113110;28;20107;-58
2023/12/01 00:28:40;;;;;;;41.40;20.40;;;;;;;1.01;98.91;100283.38;5113087;28;20495;-59
2023/12/01 00:31:05;;;;;;;46.40;21.37;;;;;;;1.02;99.22;100288.56;5112311;28;20035;-59
2023/12/01 00:33:31;;;;;;;48.90;20.80;;;;;;;1.02;98.51;100292.94;5112413;28;20386;-59
2023/12/01 00:36:00;;;;;;;43.90;20.97;;;;;;;0.98;97.97;100302.66;5103282;28;20056;-59
2023/12/01 00:38:25;;;;;;;50.13;21.23;;;;;;;0.94;97.66;100294.94;5109959;28;20031;-58
2023/12/01 00:40:51;;;;;;;45.17;21.73;;;;;;;0.93;98.52;100299.31;5112246;28;20484;-58
2023/12/01 00:43:16;;;;;;;48.93;22.10;;;;;;;0.91;98.48;100295.91;5113124;28;20048;-58
2023/12/01 00:45:42;;;;;;;45.97;20.27;;;;;;;0.88;99.10;100296.88;5096300;28;20464;-59
2023/12/01 00:48:09;;;;;;;43.27;20.90;;;;;;;0.88;98.16;100299.50;5103696;28;20028;-58
2023/12/01 00:50:35;;;;;;;47.33;21.03;;;;;;;0.86;98.67;100289.97;5112746;28;20427;-59
2023/12/01 00:53:00;;;;;;;46.83;22.17;;;;;;;0.95;98.64;100304.53;5099532;28;20055;-58
2023/12/01 00:55:28;;;;;;;46.17;20.87;;;;;;;0.94;98.26;100308.03;5102519;28;20020;-59
2023/12/01 00:57:54;;;;;;;44.27;20.37;;;;;;;0.87;98.46;100295.16;5101193;28;20053;-58
2023/12/01 01:00:22;;;;;;;44.20;20.37;;;;;;;0.93;98.13;100306.34;5112493;28;20503;-58
2023/12/01 01:02:51;;;;;;;43.10;20.20;;;;;;;0.86;98.07;100303.91;5102083;28;20032;-59
2023/12/01 01:05:17;;;;;;;40.30;18.87;;;;;;;0.92;98.45;100315.97;5112164;28;20032;-58
2023/12/01 01:07:43;;;;;;;51.20;21.50;;;;;;;0.87;97.64;100315.25;5100203;28;20386;-59
2023/12/01 01:10:08;;;;;;;45.70;20.53;;;;;;;0.81;98.20;100300.56;5102502;28;20024;-59
2023/12/01 01:12:34;;;;;;;50.50;20.63;;;;;;;0.84;98.12;100317.94;5111661;28;20033;-59
2023/12/01 01:15:03;;;;;;;51.27;21.83;;;;;;;0.80;97.94;100325.06;5111893;28;20475;-58
2023/12/01 01:17:34;;;;;;;41.57;18.97;;;;;;;0.70;97.84;100318.38;5109039;28;20066;-58
2023/12/01 01:20:03;;;;;;;50.57;21.03;;;;;;;0.73;97.98;100328.75;5112153;28;20483;-58
2023/12/01 01:22:29;;;;;;;52.00;23.08;;;;;;;0.75;98.46;100326.94;5103825;28;20072;-59
2023/12/01 01:24:54;;;;;;;51.17;22.20;;;;;;;0.76;98.22;100327.81;5112021;28;20020;-58
2023/12/01 01:27:20;;;;;;;45.13;20.60;;;;;;;0.73;98.70;100325.28;5096845;28;20023;-58
2023/12/01 01:29:45;;;;;;;46.93;21.27;;;;;;;0.75;99.00;100328.72;5111595;28;20031;-58
2023/12/01 01:32:11;;;;;;;45.13;20.50;;;;;;;0.71;99.18;100327.97;5111119;28;20378;-59
2023/12/01 01:34:37;;;;;;;46.50;21.10;;;;;;;0.82;99.42;100340.69;5103764;28;20066;-59
2023/12/01 01:37:03;;;;;;;51.07;20.10;;;;;;;0.83;98.66;100339.81;5098781;28;20463;-58
2023/12/01 01:39:28;;;;;;;50.97;22.03;;;;;;;0.81;98.53;100328.53;5111489;28;20042;-58
2023/12/01 01:41:55;;;;;;;53.13;22.57;;;;;;;0.74;98.94;100319.16;5111235;28;20544;-58
2023/12/01 01:44:21;;;;;;;48.13;21.90;;;;;;;0.82;98.87;100335.47;5110794;28;20020;-58
2023/12/01 01:46:46;;;;;;;47.40;20.93;;;;;;;0.82;98.97;100332.84;5110109;28;20031;-58
2023/12/01 01:49:14;;;;;;;47.70;21.40;;;;;;;0.77;98.26;100326.91;5101280;28;20110;-59
2023/12/01 01:51:40;;;;;;;48.60;22.23;;;;;;;0.76;98.95;100333.03;5101996;28;20082;-58
2023/12/01 01:54:06;;;;;;;56.10;24.47;;;;;;;0.72;98.72;100340.13;5110660;28;20499;-58
2023/12/01 01:56:32;;;;;;;47.77;21.10;;;;;;;0.70;99.12;100344.53;5095935;28;20062;-59
2023/12/01 01:58:58;;;;;;;54.63;22.60;;;;;;;0.70;99.55;100344.53;5111017;28;20124;-59
2023/12/01 02:01:25;;;;;;;53.70;21.13;;;;;;;0.76;99.06;100346.13;5111118;28;20056;-58
2023/12/01 02:03:53;;;;;;;50.37;21.70;;;;;;;0.78;99.55;100353.03;5110867;28;20085;-59
2023/12/01 02:06:19;;;;;;;49.60;20.77;;;;;;;0.81;99.11;100352.06;5110696;28;20034;-58
2023/12/01 02:08:45;;;;;;;52.93;21.70;;;;;;;0.83;99.25;100351.13;5101413;28;20479;-59
2023/12/01 02:11:13;;;;;;;51.47;23.13;;;;;;;0.85;98.66;100358.91;5101254;28;20061;-59
2023/12/01 02:13:41;;;;;;;55.93;21.10;;;;;;;0.81;98.25;100365.16;5110161;28;20020;-58
2023/12/01 02:16:08;;;;;;;52.23;21.27;;;;;;;0.75;98.04;100353.13;5104388;28;20054;-59
2023/12/01 02:18:36;;;;;;;51.67;21.10;;;;;;;0.76;98.27;100360.06;5111201;28;20043;-58
2023/12/01 02:21:01;;;;;;;44.67;19.97;;;;;;;0.74;98.58;100361.88;5099638;28;20026;-58
2023/12/01 02:23:27;;;;;;;47.77;21.37;;;;;;;0.73;98.86;100360.16;5110722;28;20020;-58
2023/12/01 02:25:55;;;;;;;47.53;20.40;;;;;;;0.73;98.50;100360.16;5095476;28;20015;-59
2023/12/01 02:28:21;;;;;;;51.53;21.67;;;;;;;0.74;98.92;100361.03;5110005;28;20027;-59
2023/12/01 02:30:50;;;;;;;50.50;21.87;;;;;;;0.68;98.02;100360.31;5110315;28;20069;-59
2023/12/01 02:33:17;;;;;;;65.33;22.33;;;;;;;0.63;98.04;100371.81;5110696;28;20035;-59
2023/12/01 02:35:51;;;;;;;49.53;20.27;;;;;;;0.64;98.42;100368.28;5110235;28;20020;-59
2023/12/01 02:38:17;;;;;;;51.63;19.53;;;;;;;0.62;98.38;100372.72;5108311;28;20027;-59
2023/12/01 02:40:43;;;;;;;50.00;19.90;;;;;;;0.57;97.90;100365.00;5110124;28;20024;-59
2023/12/01 02:43:11;;;;;;;48.93;20.13;;;;;;;0.55;97.14;100360.72;5110429;28;20073;-58
2023/12/01 02:45:37;;;;;;;56.67;21.93;;;;;;;0.51;96.81;100359.97;5110350;28;20102;-59
2023/12/01 02:48:03;;;;;;;52.23;21.80;;;;;;;0.44;97.46;100356.66;5103744;28;20110;-59
2023/12/01 02:50:28;;;;;;;57.03;21.63;;;;;;;0.53;97.71;100365.13;5110243;28;20502;-60
2023/12/01 02:52:54;;;;;;;53.67;21.13;;;;;;;0.52;98.06;100369.50;5101948;28;20027;-59
2023/12/01 02:55:19;;;;;;;57.80;23.17;;;;;;;0.46;97.96;100356.59;5110530;28;20085;-59
2023/12/01 02:57:47;;;;;;;51.37;21.23;;;;;;;0.52;97.76;100364.28;5110250;28;20417;-59
2023/12/01 03:00:15;;;;;;;54.33;21.17;;;;;;;0.48;97.87;100362.66;5110392;28;20046;-59
2023/12/01 03:02:41;;;;;;;55.40;22.67;;;;;;;0.43;97.54;100357.56;5110405;28;20073;-58
2023/12/01 03:05:08;;;;;;;56.10;21.90;;;;;;;0.43;98.19;100365.41;5096889;28;20019;-59
2023/12/01 03:07:37;;;;;;;47.73;20.77;;;;;;;0.48;98.45;100365.28;5109373;28;20023;-59
2023/12/01 03:10:03;;;;;;;50.87;22.20;;;;;;;0.50;98.41;100362.59;5093433;28;20035;-59
2023/12/01 03:12:31;;;;;;;55.17;22.50;;;;;;;0.46;98.98;100367.06;5109754;28;20032;-58
2023/12/01 03:14:58;;;;;;;56.83;22.60;;;;;;;0.50;98.42;100370.44;5110405;28;20043;-58
2023/12/01 03:17:24;;;;;;;46.10;21.43;;;;;;;0.48;98.71;100367.03;5099620;28;20023;-58
2023/12/01 03:19:53;;;;;;;53.87;21.70;;;;;;;0.42;98.17;100355.84;5109727;28;20015;-59
2023/12/01 03:22:19;;;;;;;53.77;21.47;;;;;;;0.49;98.75;100366.97;5109022;28;20027;-59
2023/12/01 03:24:47;;;;;;;64.37;21.27;;;;;;;0.54;98.48;100378.19;5109840;28;20023;-59
2023/12/01 03:27:14;;;;;;;62.50;23.63;;;;;;;0.51;98.42;100373.03;5108778;28;20019;-59
2023/12/01 03:29:40;;;;;;;67.30;24.47;;;;;;;0.50;97.97;100379.19;5109730;28;20034;-59
2023/12/01 03:32:05;;;;;;;61.07;24.60;;;;;;;0.51;98.68;100372.19;5096846;28;20446;-59
2023/12/01 03:34:31;;;;;;;55.63;22.17;;;;;;;0.52;99.11;100379.13;5109892;28;20077;-59
2023/12/01 03:36:56;;;;;;;63.23;24.73;;;;;;;0.54;99.31;100372.94;5092719;28;20074;-59
2023/12/01 03:39:22;;;;;;;73.67;26.30;;;;;;;0.57;99.61;100377.22;5109563;28;20034;-58
2023/12/01 03:41:48;;;;;;;67.63;26.80;;;;;;;0.58;99.22;100374.56;5099749;28;20020;-58
2023/12/01 03:44:16;;;;;;;59.57;23.10;;;;;;;0.56;98.83;100376.38;5109657;28;20026;-59
2023/12/01 03:46:41;;;;;;;65.27;25.70;;;;;;;0.58;99.50;100378.94;5109591;28;20107;-58
2023/12/01 03:49:07;;;;;;;64.57;24.70;;;;;;;0.59;99.73;100380.63;5109808;28;20032;-58
2023/12/01 03:51:32;;;;;;;66.27;24.77;;;;;;;0.57;98.88;100379.84;5095399;28;20019;-58
2023/12/01 03:53:58;;;;;;;67.23;24.27;;;;;;;0.48;99.31;100370.50;5096442;28;20118;-59
2023/12/01 03:56:24;;;;;;;68.77;25.33;;;;;;;0.52;98.83;100387.81;5110906;28;20076;-58
2023/12/01 03:58:54;;;;;;;69.27;24.47;;;;;;;0.49;99.05;100389.69;5102787;28;20034;-58
2023/12/01 04:01:22;;;;;;;71.70;25.40;;;;;;;0.52;99.15;100398.28;5110171;28;20055;-58
2023/12/01 04:03:48;;;;;;;69.57;24.20;;;;;;;0.46;99.14;100390.63;5099002;28;20024;-58
2023/12/01 04:06:15;;;;;;;67.87;24.97;;;;;;;0.47;98.21;100396.69;5102485;28;20450;-59
2023/12/01 04:08:41;;;;;;;66.40;24.87;;;;;;;0.46;98.77;100401.09;5113210;28;20504;-59
2023/12/01 04:11:06;;;;;;;72.97;27.00;;;;;;;0.42;99.23;100400.31;5104516;28;20089;-59
2023/12/01 04:13:32;;;;;;;68.60;24.73;;;;;;;0.39;99.48;100402.16;5113162;28;20041;-59
2023/12/01 04:15:58;;;;;;;75.87;27.10;;;;;;;0.37;99.38;100411.81;5097767;28;20074;-59
2023/12/01 04:18:23;;;;;;;74.17;25.53;;;;;;;0.32;99.01;100419.78;5103700;28;20031;-58
2023/12/01 04:20:49;;;;;;;70.63;24.87;;;;;;;0.33;100.00;100423.28;5112637;28;20425;-58
2023/12/01 04:23:17;;;;;;;65.57;23.83;;;;;;;0.32;99.63;100414.53;5113431;28;20399;-59
2023/12/01 04:25:46;;;;;;;60.97;21.33;;;;;;;0.30;99.35;100416.38;5112653;28;20547;-59
2023/12/01 04:28:13;;;;;;;63.03;23.20;;;;;;;0.26;99.21;100419.94;5110419;28;20447;-59
2023/12/01 04:30:39;;;;;;;67.67;21.87;;;;;;;0.30;99.78;100423.34;5112691;28;20023;-59
2023/12/01 04:33:05;;;;;;;63.53;23.97;;;;;;;0.28;99.56;100430.38;5112707;28;20122;-59
2023/12/01 04:35:34;;;;;;;63.87;23.10;;;;;;;0.27;99.66;100429.53;5112730;28;20031;-58
2023/12/01 04:38:03;;;;;;;63.65;23.23;;;;;;;0.23;99.50;100427.88;5111458;28;20026;-59
2023/12/01 04:40:30;;;;;;;67.32;22.55;;;;;;;0.15;99.05;100429.88;5112234;28;20016;-60
2023/12/01 04:42:57;;;;;;;67.20;21.90;;;;;;;0.08;99.29;100441.38;5112811;28;20019;-59
2023/12/01 04:45:27;;;;;;;69.93;22.70;;;;;;;0.06;99.51;100430.09;5102165;28;20026;-59
2023/12/01 04:47:54;;;;;;;68.50;23.40;;;;;;;0.07;99.93;100435.28;5102809;28;20395;-58
2023/12/01 04:50:22;;;;;;;71.10;24.77;;;;;;;0.06;100.00;100432.69;5083298;28;20512;-59
2023/12/01 04:52:48;;;;;;;69.07;23.83;;;;;;;0.08;99.93;100441.38;5111899;28;20421;-59
2023/12/01 04:55:16;;;;;;;70.63;23.80;;;;;;;0.05;100.00;100438.84;5102772;28;20023;-58
2023/12/01 04:57:42;;;;;;;74.83;24.87;;;;;;;0.06;100.00;100451.00;5101930;28;20019;-59
2023/12/01 05:00:21;;;;;;;68.67;27.57;;;;;;;0.10;100.00;100445.66;5111882;28;20051;-59
2023/12/01 05:02:54;;;;;;;60.28;24.45;;;;;;;0.14;100.00;100455.13;5111696;28;20071;-59
2023/12/01 05:05:25;;;;;;;68.30;24.17;;;;;;;0.14;100.00;100451.66;5112396;28;20407;-58
2023/12/01 05:07:54;;;;;;;62.83;23.83;;;;;;;0.08;100.00;100449.22;5111274;28;20364;-58
2023/12/01 05:10:22;;;;;;;77.53;30.17;;;;;;;0.13;100.00;100457.81;5111473;28;20313;-58
2023/12/01 05:12:55;;;;;;;75.60;26.43;;;;;;;0.15;100.00;100463.84;5112006;28;20023;-59
2023/12/01 05:15:24;;;;;;;95.07;35.43;;;;;;;0.14;100.00;100462.97;5111755;27;20028;-58
2023/12/01 05:17:52;;;;;;;103.83;42.73;;;;;;;0.15;100.00;100453.41;5100647;28;20035;-59
2023/12/01 05:20:19;;;;;;;149.43;53.93;;;;;;;0.16;100.00;100462.94;5111353;28;20068;-58
2023/12/01 05:22:49;;;;;;;101.87;34.40;;;;;;;0.19;100.00;100465.47;5101172;28;20035;-59
2023/12/01 05:25:19;;;;;;;68.97;26.93;;;;;;;0.25;100.00;100465.31;5111764;28;20055;-59
2023/12/01 05:27:46;;;;;;;108.70;41.72;;;;;;;0.23;100.00;100473.19;5111306;28;20383;-58
2023/12/01 05:30:13;;;;;;;80.80;29.77;;;;;;;0.23;100.00;100473.19;5103859;28;20096;-58
2023/12/01 05:32:40;;;;;;;95.73;34.20;;;;;;;0.27;100.00;100478.38;5111066;28;20076;-58
2023/12/01 05:35:11;;;;;;;80.50;31.83;;;;;;;0.31;100.00;100477.38;5111145;28;20396;-58
2023/12/01 05:37:49;;;;;;;85.93;31.53;;;;;;;0.32;100.00;100479.94;5110435;28;20028;-58
2023/12/01 05:40:20;;;;;;;81.57;27.60;;;;;;;0.31;100.00;100480.84;5111717;28;20027;-58
2023/12/01 05:42:47;;;;;;;72.70;26.90;;;;;;;0.33;100.00;100483.44;5111267;28;20015;-58
2023/12/01 05:45:14;;;;;;;89.03;30.73;;;;;;;0.32;100.00;100482.53;5099526;28;20501;-59
2023/12/01 05:47:44;;;;;;;80.90;29.83;;;;;;;0.31;100.00;100482.59;5110561;28;20030;-58
2023/12/01 05:50:12;;;;;;;75.68;28.50;;;;;;;0.30;100.00;100496.59;5110707;28;20028;-59
2023/12/01 05:52:38;;;;;;;73.53;27.27;;;;;;;0.29;100.00;100494.84;5109902;28;20073;-59
2023/12/01 05:55:10;;;;;;;81.50;32.67;;;;;;;0.23;100.00;100511.56;5111258;28;20065;-59
2023/12/01 05:57:36;;;;;;;73.20;27.40;;;;;;;0.21;100.00;100489.84;5111156;28;20034;-59
2023/12/01 06:00:02;;;;;;;73.50;26.13;;;;;;;0.23;100.00;100503.72;5099721;28;20480;-59
2023/12/01 06:02:28;;;;;;;77.57;28.33;;;;;;;0.21;100.00;100503.78;5101865;28;20064;-58
2023/12/01 06:04:57;;;;;;;68.77;25.30;;;;;;;0.17;100.00;100496.03;5095655;28;20095;-59
2023/12/01 06:07:23;;;;;;;74.07;26.50;;;;;;;0.13;100.00;100497.03;5109964;28;20167;-58
2023/12/01 06:09:48;;;;;;;78.50;29.33;;;;;;;0.23;100.00;100503.72;5098768;28;20035;-58
2023/12/01 06:12:13;;;;;;;71.97;27.40;;;;;;;0.23;100.00;100495.88;5110338;28;20403;-59
2023/12/01 06:14:39;;;;;;;64.77;25.73;;;;;;;0.27;99.84;100505.38;5101468;28;20027;-58
2023/12/01 06:17:07;;;;;;;58.37;23.90;;;;;;;0.26;100.00;100501.00;5110435;28;20016;-59
2023/12/01 06:19:34;;;;;;;70.63;24.37;;;;;;;0.27;99.86;100500.13;5098347;28;20027;-58
2023/12/01 06:22:00;;;;;;;61.07;25.20;;;;;;;0.27;99.31;100500.13;5097734;28;20023;-59
2023/12/01 06:24:26;;;;;;;64.90;25.27;;;;;;;0.21;98.75;100493.31;5110346;28;20043;-59
2023/12/01 06:26:52;;;;;;;63.13;24.27;;;;;;;0.30;98.60;100509.66;5096965;28;20118;-59
2023/12/01 06:29:18;;;;;;;64.33;24.53;;;;;;;0.34;98.47;100506.06;5110179;28;20135;-58
2023/12/01 06:31:44;;;;;;;60.23;24.07;;;;;;;0.36;98.61;100504.25;5100511;28;20107;-58
2023/12/01 06:34:10;;;;;;;59.60;24.93;;;;;;;0.36;97.73;100514.72;5077285;28;20114;-59
2023/12/01 06:36:35;;;;;;;54.93;22.17;;;;;;;0.37;97.30;100512.06;5082215;27;20036;-58
2023/12/01 06:39:00;;;;;;;55.40;23.00;;;;;;;0.36;96.25;100514.72;5110073;28;20108;-59
2023/12/01 06:41:26;;;;;;;58.83;24.33;;;;;;;0.35;96.16;100518.22;5109879;28;20073;-59
2023/12/01 06:43:51;;;;;;;58.90;23.33;;;;;;;0.34;95.50;100519.13;5109681;28;20042;-59
2023/12/01 06:46:19;;;;;;;57.83;25.20;;;;;;;0.33;95.73;100526.13;5109938;28;20032;-59
2023/12/01 06:48:44;;;;;;;53.13;23.60;;;;;;;0.35;95.97;100526.06;5108121;28;20026;-59
2023/12/01 06:51:12;;;;;;;67.23;31.50;;;;;;;0.35;96.29;100518.22;5099763;28;20420;-59
2023/12/01 06:53:41;;;;;;;62.10;28.20;;;;;;;0.35;97.15;100516.47;5109822;28;20104;-58
2023/12/01 06:56:09;;;;;;;68.93;29.77;;;;;;;0.33;97.20;100515.66;5109799;28;20479;-58
2023/12/01 06:58:34;;;;;;;59.27;23.10;;;;;;;0.41;96.86;100525.91;5109799;28;20030;-59
2023/12/01 07:01:00;;;;;;;48.47;22.20;;;;;;;0.41;96.46;100528.53;5109528;28;20043;-58
2023/12/01 07:03:25;;;;;;;48.70;22.93;;;;;;;0.40;95.84;100522.44;5099858;28;20032;-59
2023/12/01 07:05:52;;;;;;;60.40;25.30;;;;;;;0.39;95.77;100533.81;5109238;28;20066;-59
2023/12/01 07:08:19;;;;;;;49.17;21.33;;;;;;;0.36;95.11;100540.88;5100401;28;20382;-59
2023/12/01 07:10:45;;;;;;;55.87;23.47;;;;;;;0.39;96.16;100538.19;5102786;28;20023;-58
2023/12/01 07:13:10;;;;;;;49.33;22.33;;;;;;;0.35;95.75;100532.16;5109889;28;20106;-59
2023/12/01 07:15:38;;;;;;;48.93;21.83;;;;;;;0.39;95.17;100543.41;5101084;28;20031;-58
2023/12/01 07:18:04;;;;;;;58.47;24.80;;;;;;;0.36;95.32;100541.75;5109676;28;20368;-59
2023/12/01 07:20:33;;;;;;;54.20;22.47;;;;;;;0.40;95.88;100547.75;5099080;28;20484;-59
2023/12/01 07:22:59;;;;;;;50.43;20.97;;;;;;;0.37;94.83;100560.91;5108808;28;20421;-59
2023/12/01 07:25:25;;;;;;;47.40;19.87;;;;;;;0.34;95.53;100553.13;5106901;28;20038;-59
2023/12/01 07:28:02;;;;;;;55.37;23.33;;;;;;;0.35;95.43;100541.75;5109324;28;20364;-59
2023/12/01 07:30:28;;;;;;;53.67;21.37;;;;;;;0.36;95.37;100554.81;5091664;28;20427;-59
2023/12/01 07:32:55;;;;;;;50.00;21.30;;;;;;;0.38;94.95;100550.41;5112819;28;20015;-59
2023/12/01 07:35:22;;;;;;;47.63;20.97;;;;;;;0.34;94.68;100537.44;5099148;28;20051;-59
2023/12/01 07:37:52;;;;;;;46.17;20.33;;;;;;;0.47;94.48;100553.66;5102279;28;20462;-58
2023/12/01 07:40:21;;;;;;;47.75;20.20;;;;;;;0.52;95.43;100543.94;5113007;28;20023;-59
2023/12/01 07:42:48;;;;;;;50.85;21.10;;;;;;;0.55;95.03;100549.94;5113595;28;20024;-59
2023/12/01 07:45:17;;;;;;;50.47;21.57;;;;;;;0.55;95.01;100549.94;5111050;28;20498;-59
2023/12/01 07:47:46;;;;;;;49.03;20.40;;;;;;;0.57;95.54;100544.69;5101237;28;20417;-59
2023/12/01 07:50:14;;;;;;;53.78;22.40;;;;;;;0.59;96.13;100548.09;5114124;28;20479;-59
2023/12/01 07:52:50;;;;;;;52.47;21.33;;;;;;;0.62;95.96;100548.03;5112963;28;20023;-59
2023/12/01 07:55:22;;;;;;;62.00;25.43;;;;;;;0.58;94.91;100542.00;5113583;28;20023;-59
2023/12/01 07:57:47;;;;;;;54.57;22.67;;;;;;;0.65;95.01;100550.56;5100816;28;20440;-59
2023/12/01 08:00:16;;;;;;;57.43;21.57;;;;;;;0.64;95.07;100552.31;5102094;28;20131;-58
2023/12/01 08:02:45;;;;;;;46.53;22.00;;;;;;;0.56;95.27;100538.59;5110604;28;20496;-58
2023/12/01 08:05:14;;;;;;;49.72;21.90;;;;;;;0.58;95.43;100534.16;5112294;28;20059;-58
2023/12/01 08:07:53;;;;;;;43.57;20.87;;;;;;;0.68;95.62;100551.34;5099533;28;20020;-58
2023/12/01 08:10:19;;;;;;;47.90;22.93;;;;;;;0.63;95.93;100541.91;5113542;28;20081;-58
2023/12/01 08:12:46;;;;;;;48.73;21.03;;;;;;;0.65;95.96;100546.19;5096409;28;20089;-58
2023/12/01 08:15:12;;;;;;;53.57;21.77;;;;;;;0.69;95.91;100546.97;5112275;28;20035;-58
2023/12/01 08:17:43;;;;;;;53.03;23.00;;;;;;;0.70;95.63;100547.81;5114091;27;20039;-58
2023/12/01 08:20:10;;;;;;;52.43;21.50;;;;;;;0.70;95.33;100551.28;5113139;28;20047;-58
2023/12/01 08:22:37;;;;;;;53.63;22.33;;;;;;;0.72;95.35;100561.72;5094697;28;20034;-58
2023/12/01 08:25:07;;;;;;;53.10;24.33;;;;;;;0.68;95.52;100553.13;5095020;28;20031;-61
2023/12/01 08:27:33;;;;;;;54.60;23.20;;;;;;;0.67;95.64;100552.22;5094505;28;20483;-61
2023/12/01 08:29:58;;;;;;;56.07;24.30;;;;;;;0.74;95.82;100565.19;5113167;28;20027;-58
2023/12/01 08:32:24;;;;;;;56.57;25.00;;;;;;;0.74;96.30;100568.66;5110782;28;20027;-58
2023/12/01 08:34:50;;;;;;;58.83;25.57;;;;;;;0.75;96.37;100572.13;5093225;28;20055;-58
2023/12/01 08:37:16;;;;;;;57.83;23.40;;;;;;;0.78;95.92;100575.50;5112684;28;20427;-58
2023/12/01 08:39:44;;;;;;;57.87;22.57;;;;;;;0.80;96.24;100575.47;5078056;28;20015;-58
2023/12/01 08:42:10;;;;;;;48.03;21.43;;;;;;;0.79;96.57;100569.34;5093755;28;20111;-58
2023/12/01 08:44:35;;;;;;;54.97;22.73;;;;;;;0.81;96.17;100578.03;5093889;28;20492;-58
2023/12/01 08:47:01;;;;;;;45.70;20.83;;;;;;;0.79;96.32;100577.22;5094351;28;20522;-59
2023/12/01 08:49:26;;;;;;;48.27;21.17;;;;;;;0.78;96.43;100578.13;5094486;28;20504;-58
2023/12/01 08:51:55;;;;;;;51.67;22.03;;;;;;;0.72;96.20;100572.19;5112857;28;20035;-59
2023/12/01 08:54:23;;;;;;;53.70;22.53;;;;;;;0.80;96.57;100581.56;5079130;28;20023;-58
2023/12/01 08:56:49;;;;;;;56.37;22.60;;;;;;;0.80;96.15;100580.72;5094941;28;20028;-58
2023/12/01 08:59:14;;;;;;;57.67;23.13;;;;;;;0.81;96.59;100578.03;5112724;28;20039;-58
2023/12/01 09:01:40;;;;;;;56.70;22.90;;;;;;;0.81;96.51;100585.88;5112858;28;20416;-58
2023/12/01 09:04:06;;;;;;;65.53;23.10;;;;;;;0.84;96.61;100587.56;5113279;28;20118;-58
2023/12/01 09:06:32;;;;;;;50.77;22.17;;;;;;;0.85;96.81;100598.00;5094189;28;20073;-58
2023/12/01 09:08:58;;;;;;;59.83;22.60;;;;;;;0.79;95.84;100587.69;5094804;28;20034;-58
2023/12/01 09:11:26;;;;;;;51.80;22.63;;;;;;;0.84;96.45;100596.28;5113177;28;20020;-58
2023/12/01 09:13:52;;;;;;;53.43;22.43;;;;;;;0.87;97.25;100592.72;5112913;28;20034;-58
2023/12/01 09:16:17;;;;;;;52.63;20.93;;;;;;;0.90;96.84;100596.09;5113069;28;20169;-58
2023/12/01 09:18:43;;;;;;;41.20;19.00;;;;;;;0.93;96.88;100596.94;5094749;28;20019;-58
2023/12/01 09:21:08;;;;;;;43.07;17.00;;;;;;;0.94;96.36;100601.25;5112638;28;20451;-58
2023/12/01 09:23:39;;;;;;;35.93;15.63;;;;;;;0.91;96.08;100607.44;5112983;28;20038;-58
2023/12/01 09:26:05;;;;;;;34.03;16.27;;;;;;;0.94;96.23;100604.72;5112807;28;20042;-58
2023/12/01 09:28:36;;;;;;;34.77;14.67;;;;;;;0.90;96.22;100600.50;5094094;28;20028;-58
2023/12/01 09:31:02;;;;;;;30.33;15.33;;;;;;;0.95;95.81;100608.22;5112845;28;20548;-58
2023/12/01 09:33:31;;;;;;;25.77;13.80;;;;;;;0.95;95.51;100614.31;5112958;28;20072;-58
2023/12/01 09:35:56;;;;;;;31.70;14.57;;;;;;;0.93;95.77;100608.25;5112418;28;20431;-58
2023/12/01 09:38:22;;;;;;;29.30;14.93;;;;;;;0.96;95.54;100609.94;5112650;28;20045;-59
2023/12/01 09:40:50;;;;;;;29.90;14.70;;;;;;;0.99;95.08;100609.84;5112650;28;20050;-58
2023/12/01 09:43:19;;;;;;;30.27;14.30;;;;;;;0.98;94.40;100616.00;5112498;28;20051;-58
2023/12/01 09:45:47;;;;;;;27.07;14.17;;;;;;;0.98;93.53;100618.63;5094020;28;20039;-59
2023/12/01 09:48:14;;;;;;;28.07;13.63;;;;;;;0.96;93.29;100639.59;5094105;28;20471;-58
2023/12/01 09:50:39;;;;;;;29.67;14.03;;;;;;;0.92;93.69;100622.25;5077218;28;20016;-58
2023/12/01 09:53:05;;;;;;;34.10;15.67;;;;;;;0.99;93.70;100641.28;5111877;28;20152;-58
2023/12/01 09:55:33;;;;;;;30.03;13.63;;;;;;;1.02;93.61;100635.94;5093002;28;20016;-59
2023/12/01 09:57:59;;;;;;;33.87;14.50;;;;;;;0.96;93.45;100623.88;5093637;28;20022;-58
2023/12/01 10:00:24;;;;;;;28.40;14.17;;;;;;;1.05;92.95;100636.72;5112233;28;20055;-59
2023/12/01 10:02:50;;;;;;;29.20;13.40;;;;;;;1.02;92.84;100622.84;5093894;28;20118;-58
2023/12/01 10:05:18;;;;;;;31.90;14.63;;;;;;;1.11;91.87;100633.06;5112190;28;20012;-58
2023/12/01 10:07:45;;;;;;;29.57;15.33;;;;;;;1.05;92.21;100618.38;5111501;28;20103;-58
2023/12/01 10:10:21;;;;;;;29.00;14.67;;;;;;;1.11;92.49;100630.47;5093656;28;20026;-58
2023/12/01 10:12:52;;;;;;;28.40;14.07;;;;;;;1.08;92.68;100625.31;5111860;28;20024;-58
2023/12/01 10:15:18;;;;;;;28.77;14.40;;;;;;;1.08;92.65;100634.00;5093764;28;20218;-58
2023/12/01 10:17:43;;;;;;;28.60;14.93;;;;;;;1.11;93.12;100635.69;5111846;28;20016;-58
2023/12/01 10:20:09;;;;;;;28.23;14.13;;;;;;;1.07;91.55;100629.69;5093846;28;20020;-58
2023/12/01 10:22:34;;;;;;;29.73;14.37;;;;;;;1.14;91.68;100633.84;5092119;28;20031;-57
2023/12/01 10:25:04;;;;;;;25.77;14.45;;;;;;;1.15;91.47;100632.09;5111884;28;20027;-57
2023/12/01 10:27:29;;;;;;;26.67;13.75;;;;;;;1.18;91.02;100632.03;5110325;27;20015;-57
2023/12/01 10:30:10;;;;;;;28.07;14.40;;;;;;;1.18;91.29;100631.13;5111720;28;20042;-58
2023/12/01 10:32:36;;;;;;;25.97;13.93;;;;;;;1.17;91.40;100627.66;5094293;28;20511;-58
2023/12/01 10:35:02;;;;;;;31.20;15.00;;;;;;;1.22;91.15;100636.25;5111741;28;20028;-58
2023/12/01 10:37:30;;;;;;;28.63;14.83;;;;;;;1.23;90.73;100632.72;5092943;28;20023;-57
2023/12/01 10:40:01;;;;;;;32.50;15.15;;;;;;;1.27;91.44;100629.13;5075998;28;20062;-57
2023/12/01 10:42:32;;;;;;;28.40;14.97;;;;;;;1.28;91.74;100623.00;5111233;28;20031;-57
2023/12/01 10:45:00;;;;;;;29.67;14.33;;;;;;;1.37;91.18;100632.34;5093416;28;20050;-57
2023/12/01 10:47:27;;;;;;;29.08;13.57;;;;;;;1.38;90.41;100631.44;5110834;28;20055;-57
2023/12/01 10:49:55;;;;;;;23.65;12.48;;;;;;;1.37;90.03;100629.72;5111677;28;20543;-57
2023/12/01 10:52:20;;;;;;;25.02;13.15;;;;;;;1.36;89.38;100623.63;5111248;28;20407;-58
2023/12/01 10:54:46;;;;;;;29.27;14.17;;;;;;;1.40;90.10;100623.53;5109979;28;20035;-57
2023/12/01 10:57:26;;;;;;;26.73;14.90;;;;;;;1.39;89.85;100614.84;5111385;28;20031;-57
2023/12/01 10:59:53;;;;;;;32.10;14.32;;;;;;;1.46;89.72;100625.97;5110708;28;20030;-57
2023/12/01 11:02:21;;;;;;;28.20;15.15;;;;;;;1.46;88.68;100625.97;5130727;28;20054;-57
2023/12/01 11:04:47;;;;;;;26.17;14.35;;;;;;;1.44;88.12;100620.81;5131834;27;20023;-57
2023/12/01 11:07:41;;;;;;;32.10;14.87;;;;;;;1.44;88.32;100617.31;5117003;27;20021;-57
2023/12/01 11:10:32;;;;;;;30.42;14.18;;;;;;;1.42;87.97;100627.84;5111873;28;20122;-57
2023/12/01 11:13:09;;;;;;;27.40;13.00;;;;;;;1.40;87.26;100626.16;5115651;28;20107;-58
2023/12/01 11:15:37;;;;;;;24.43;14.50;;;;;;;1.33;87.70;100615.88;5115097;27;20020;-57
2023/12/01 11:18:07;;;;;;;28.37;13.97;;;;;;;1.39;87.57;100627.94;5098215;28;20023;-57